Etusivu
METAR-TAF:

METAR-TAF

Lentoasemat :

Puerto Francisco de Orellana, Ecuador

Leveyspiiri: 00-27-46S, Pituuspiiri: 076-59-12W, korkeus merenpinnasta: 254 m

Tämänhetkinen sää

Tämä raportti tehtiin 4 tuntia ja 59 minuuttia sitten, kello 22.00 UTC
Tuuli 3 kn lännestä/luoteesta
Lämpötila 31°C
Kosteus 71%
Ilmanpaine 1007 hPa
Näkyvyys 10 km tai enemmän
Hajanaisia pilviä 2300 ft:n korkeudessa

METAR: SECO 232200Z 29003KT 9999 SCT023 31/25 Q1007 RMK A2975

Aika: 21:59 (02:59 UTC)


TAF: puuttuu

Säähavainnot ja -ennusteet yli 4000 lentoasemalta (METAR- ja TAF-raportit).

Käytössä olevat sääasemat on merkitty karttaan keltaisilla ja punaisilla pisteillä.

Aseta hiiri pisteen päälle nähdäksesi sääaseman nimen.

Klikkaa sitten nähdäksesi säähavainnot ja -ennusteet.

Kartan vaihtaminen: klikkaa mustalla rastilla varustettuja vihreitä pisteitä, niin voit zoomata sisään; viivalla varustettua vihreää pistettä, niin voit zoomata ulos tai vihreitä nuolia, niin pääset viereisille kartoille.


METAR-TAF: